Sac City, IA (50583)

5:19 AM CDT on August 24, 2016 (GMT -0500)
Odebolt Methodist Church | | Change Station

Elev 1381 ft 42.31 °N, 95.25 °W | Updated 22 seconds ago

Scattered Clouds
Scattered Clouds
65.4 °F
Feels Like 65.4 °F
N
0.0
Wind Variable Wind from SW
Gusts 1.0 mph

Today
High -- | Low -- °F
--% Chance of Precip.
Yesterday
High -- | Low -- °F
Precip. -- in
Pressure 29.88 in
Visibility 10.0 miles
Clouds Scattered Clouds 6000 ft
Scattered Clouds 7000 ft
Dew Point 63 °F
Humidity 93%
Rainfall 0.00 in
Snow Depth Not available.
6:37 AM 8:06 PM
Waning Gibbous, 58% visible
METAR KSLB 241015Z AUTO 24008KT 10SM SCT060 SCT070 19/17 A2988 RMK AO2
Pressure 29.88 in
Visibility 10.0 miles
Clouds Scattered Clouds 6000 ft
Scattered Clouds 7000 ft
Dew Point 63 °F
Humidity 93%
Rainfall 0.00 in
Snow Depth Not available.
6:37 AM 8:06 PM
Waning Gibbous, 58% visible
METAR KSLB 241015Z AUTO 24008KT 10SM SCT060 SCT070 19/17 A2988 RMK AO2

10-Day Weather Forecast

Almanac

Astronomy

Aug. 24, 2016 Rise Set
Actual Time
Civil Twilight
Nautical Twilight
Astronomical Twilight
Moon
Length of Visible Light
Length of Day
Tomorrow will be .
, % of the Moon is Illuminated

Today's Extremes

State Highs State Lows

Community

WunderPhotos

Upload Photos

1,934,560 photos uploaded!

WunderBlog® & News

Nearby

Air Quality

  Air Quality AQ Index Pollutant
Not available.

Snow Depth

Station Depth Elevation

Earthquake Activity

City Distance Mag. Time & Date
Minimum magnitude displayed is 2.5.

Coastal Water Temperatures

Place Temperature

Stations

Nearby Weather Stations

Station Location Temp. Windchill Dew Point Humidity Wind Precip. Elev Updated Type
                   

Watches & Warnings

There are currently no watches in effect.